createdAt,value
2018-11-22T00:00:21.247Z,20.90
2018-11-22T00:02:51.506Z,19.87
2018-11-22T00:05:20.467Z,18.40
2018-11-22T00:07:50.059Z,19.50
2018-11-22T00:10:19.033Z,19.57
2018-11-22T00:12:47.718Z,20.47
2018-11-22T00:15:16.988Z,20.30
2018-11-22T00:17:46.010Z,20.17
2018-11-22T00:20:14.690Z,18.60
2018-11-22T00:22:43.330Z,19.03
2018-11-22T00:25:13.371Z,20.63
2018-11-22T00:27:42.276Z,22.83
2018-11-22T00:30:13.357Z,20.53
2018-11-22T00:32:42.047Z,21.23
2018-11-22T00:35:12.099Z,21.87
2018-11-22T00:37:41.746Z,22.90
2018-11-22T00:40:13.024Z,23.50
2018-11-22T00:42:42.283Z,22.57
2018-11-22T00:45:12.823Z,22.00
2018-11-22T00:47:41.592Z,22.13
2018-11-22T00:50:12.239Z,23.37
2018-11-22T00:52:41.166Z,23.43
2018-11-22T00:55:11.907Z,22.77
2018-11-22T00:57:40.853Z,25.27
2018-11-22T01:00:20.279Z,25.27
2018-11-22T01:02:49.143Z,24.00
2018-11-22T01:05:19.162Z,23.77
2018-11-22T01:07:47.977Z,23.20
2018-11-22T01:10:24.210Z,23.10
2018-11-22T01:12:55.277Z,23.97
2018-11-22T01:15:23.861Z,23.93
2018-11-22T01:17:52.654Z,23.90
2018-11-22T01:20:22.308Z,22.93
2018-11-22T01:23:01.500Z,24.47
2018-11-22T01:25:30.122Z,23.33
2018-11-22T01:27:58.817Z,25.37
2018-11-22T01:30:27.864Z,23.23
2018-11-22T01:32:57.382Z,22.80
2018-11-22T01:35:26.593Z,24.00
2018-11-22T01:37:55.423Z,24.30
2018-11-22T01:40:24.902Z,22.80
2018-11-22T01:42:53.713Z,21.30
2018-11-22T01:45:26.377Z,20.40
2018-11-22T01:47:55.061Z,23.50
2018-11-22T01:50:24.040Z,23.27
2018-11-22T01:52:52.647Z,21.47
2018-11-22T01:55:22.330Z,24.73
2018-11-22T01:57:51.016Z,26.60
2018-11-22T02:00:22.189Z,24.50
2018-11-22T02:02:50.949Z,27.00
2018-11-22T02:05:22.509Z,27.87
2018-11-22T02:07:51.165Z,28.33
2018-11-22T02:10:20.936Z,27.83
2018-11-22T02:12:49.576Z,25.00
2018-11-22T02:15:22.882Z,25.03
2018-11-22T02:17:51.523Z,28.07
2018-11-22T02:20:21.452Z,27.67
2018-11-22T02:22:50.176Z,27.93
2018-11-22T02:25:20.290Z,27.00
2018-11-22T02:27:48.968Z,26.33
2018-11-22T02:30:19.679Z,24.97
2018-11-22T02:32:49.720Z,26.20
2018-11-22T02:35:18.664Z,25.43
2018-11-22T02:37:47.384Z,25.37
2018-11-22T02:40:17.616Z,28.00
2018-11-22T02:42:46.815Z,25.27
2018-11-22T02:45:16.826Z,26.10
2018-11-22T02:47:45.500Z,25.30
2018-11-22T02:50:15.545Z,24.73
2018-11-22T02:52:44.286Z,25.20
2018-11-22T02:55:13.042Z,25.70
2018-11-22T02:57:42.284Z,25.30
2018-11-22T03:00:37.756Z,25.90
2018-11-22T03:03:07.155Z,22.50
2018-11-22T03:05:35.749Z,23.40
2018-11-22T03:08:04.594Z,22.90
2018-11-22T03:10:33.279Z,23.47
2018-11-22T03:13:04.614Z,24.00
2018-11-22T03:15:33.486Z,24.90
2018-11-22T03:18:02.670Z,22.70
2018-11-22T03:20:31.504Z,23.53
2018-11-22T03:23:00.154Z,23.07
2018-11-22T03:25:28.735Z,24.40
2018-11-22T03:27:57.344Z,24.40
2018-11-22T03:30:26.236Z,23.30
2018-11-22T03:32:54.813Z,24.70
2018-11-22T03:35:24.832Z,25.17
2018-11-22T03:37:53.474Z,21.60
2018-11-22T03:40:23.456Z,23.90
2018-11-22T03:42:52.092Z,22.87
2018-11-22T03:45:21.184Z,22.47
2018-11-22T03:47:49.877Z,21.43
2018-11-22T03:50:23.119Z,22.70
2018-11-22T03:52:53.011Z,21.93
2018-11-22T03:55:21.754Z,22.50
2018-11-22T03:57:50.710Z,21.80
2018-11-22T04:00:24.439Z,20.53
2018-11-22T04:02:53.488Z,22.40
2018-11-22T04:05:23.439Z,21.90
2018-11-22T04:07:52.127Z,20.57
2018-11-22T04:10:22.192Z,21.37
2018-11-22T04:12:50.868Z,24.27
2018-11-22T04:15:19.512Z,22.03
2018-11-22T04:17:48.132Z,22.17
2018-11-22T04:20:18.296Z,21.23
2018-11-22T04:22:47.126Z,19.67
2018-11-22T04:25:16.633Z,20.50
2018-11-22T04:27:45.466Z,21.10
2018-11-22T04:30:28.866Z,22.90
2018-11-22T04:32:57.517Z,21.40
2018-11-22T04:35:26.521Z,22.10
2018-11-22T04:37:55.120Z,21.60
2018-11-22T04:40:24.795Z,20.73
2018-11-22T04:42:54.171Z,19.20
2018-11-22T04:45:24.073Z,21.77
2018-11-22T04:47:54.198Z,20.63
2018-11-22T04:50:24.103Z,21.10
2018-11-22T04:52:52.778Z,21.47
2018-11-22T04:55:21.876Z,21.20
2018-11-22T04:57:50.527Z,20.57
2018-11-22T05:00:20.619Z,22.20
2018-11-22T05:02:49.283Z,20.63
2018-11-22T05:05:19.341Z,22.47
2018-11-22T05:07:48.248Z,21.80
2018-11-22T05:10:18.339Z,23.20
2018-11-22T05:12:47.572Z,20.00
2018-11-22T05:15:17.533Z,19.47
2018-11-22T05:17:46.145Z,21.90
2018-11-22T05:20:16.078Z,20.43
2018-11-22T05:22:44.787Z,18.93
2018-11-22T05:25:13.820Z,18.60
2018-11-22T05:27:42.557Z,20.70
2018-11-22T05:30:13.984Z,18.27
2018-11-22T05:32:42.590Z,19.27
2018-11-22T05:35:12.295Z,20.23
2018-11-22T05:37:41.163Z,21.03
2018-11-22T05:40:12.192Z,22.07
2018-11-22T05:42:41.328Z,19.43
2018-11-22T05:45:12.247Z,21.77
2018-11-22T05:47:41.111Z,19.37
2018-11-22T05:50:11.752Z,20.17
2018-11-22T05:52:40.431Z,19.97
2018-11-22T05:55:10.017Z,20.87
2018-11-22T05:57:38.929Z,20.33
2018-11-22T06:00:22.459Z,20.77
2018-11-22T06:02:51.335Z,20.30
2018-11-22T06:05:21.296Z,20.30
2018-11-22T06:07:50.080Z,20.20
2018-11-22T06:10:22.976Z,20.70
2018-11-22T06:12:52.258Z,18.87
2018-11-22T06:15:20.870Z,19.83
2018-11-22T06:17:50.821Z,20.00
2018-11-22T06:20:23.752Z,22.03
2018-11-22T06:22:52.733Z,21.17
2018-11-22T06:25:21.621Z,22.17
2018-11-22T06:27:50.607Z,22.43
2018-11-22T06:30:27.154Z,19.90
2018-11-22T06:32:57.295Z,20.30
2018-11-22T06:35:26.254Z,22.50
2018-11-22T06:37:54.835Z,21.07
2018-11-22T06:40:23.504Z,20.10
2018-11-22T06:42:53.038Z,18.47
2018-11-22T06:45:23.887Z,21.27
2018-11-22T06:47:51.855Z,20.10
2018-11-22T06:50:21.359Z,21.87
2018-11-22T06:52:50.064Z,19.77
2018-11-22T06:55:20.278Z,19.43
2018-11-22T06:57:48.911Z,18.80
2018-11-22T07:00:18.850Z,19.73
2018-11-22T07:02:48.377Z,19.00
2018-11-22T07:05:18.280Z,19.20
2018-11-22T07:07:46.944Z,19.63
2018-11-22T07:10:16.596Z,19.50
2018-11-22T07:12:45.671Z,19.20
2018-11-22T07:15:15.226Z,18.80
2018-11-22T07:17:43.899Z,19.00
2018-11-22T07:20:14.969Z,20.90
2018-11-22T07:22:44.270Z,17.47
2018-11-22T07:25:15.586Z,18.43
2018-11-22T07:27:44.314Z,18.37
2018-11-22T07:30:15.343Z,18.40
2018-11-22T07:32:44.451Z,18.30
2018-11-22T07:35:16.736Z,17.80
2018-11-22T07:37:48.145Z,18.20
2018-11-22T07:40:25.722Z,18.40
2018-11-22T07:42:54.678Z,17.17
2018-11-22T07:45:24.960Z,16.43
2018-11-22T07:47:54.517Z,16.17
2018-11-22T07:50:23.724Z,18.60
2018-11-22T07:52:52.375Z,14.10
2018-11-22T07:55:21.303Z,15.87
2018-11-22T07:57:50.035Z,16.03
2018-11-22T08:00:20.501Z,17.37
2018-11-22T08:02:49.750Z,17.80
2018-11-22T08:05:19.332Z,17.30
2018-11-22T08:07:47.994Z,16.90
2018-11-22T08:10:17.634Z,17.70
2018-11-22T08:12:47.081Z,17.73
2018-11-22T08:15:19.782Z,17.20
2018-11-22T08:17:48.686Z,17.20
2018-11-22T08:20:18.564Z,17.47
2018-11-22T08:22:47.555Z,17.97
2018-11-22T08:25:17.493Z,18.27
2018-11-22T08:27:47.019Z,17.07
2018-11-22T08:30:16.631Z,17.70
2018-11-22T08:32:46.740Z,16.60
2018-11-22T08:35:14.885Z,18.40
2018-11-22T08:37:43.539Z,16.63
2018-11-22T08:40:16.738Z,16.43
2018-11-22T08:42:45.641Z,17.67
2018-11-22T08:45:15.664Z,16.00
2018-11-22T08:47:44.597Z,16.43
2018-11-22T08:50:14.938Z,15.10
2018-11-22T08:52:45.023Z,15.43
2018-11-22T08:55:14.276Z,16.93
2018-11-22T08:57:43.043Z,15.53
2018-11-22T09:00:23.189Z,16.60
2018-11-22T09:02:52.058Z,15.10
2018-11-22T09:05:22.083Z,17.47
2018-11-22T09:07:50.774Z,15.53
2018-11-22T12:17:50.387Z,16.33
2018-11-22T12:20:19.851Z,13.17
2018-11-22T12:22:49.912Z,15.80
2018-11-22T12:25:19.962Z,14.70
2018-11-22T12:27:50.462Z,14.57
2018-11-22T12:30:21.223Z,15.83
2018-11-22T12:32:55.511Z,14.40
2018-11-22T12:35:29.793Z,13.77
2018-11-22T12:38:04.118Z,13.70
2018-11-22T12:40:33.587Z,14.77
2018-11-22T12:43:02.295Z,15.00
2018-11-22T12:45:31.858Z,14.70
2018-11-22T12:48:01.339Z,16.60
2018-11-22T12:50:30.166Z,18.70
2018-11-22T12:52:58.868Z,16.70
2018-11-22T12:55:27.972Z,20.83
2018-11-22T12:57:56.741Z,18.47
2018-11-22T13:00:26.230Z,15.70
2018-11-22T13:02:55.483Z,17.00
2018-11-22T13:05:24.387Z,18.57
2018-11-22T13:07:53.525Z,14.93
2018-11-22T13:10:22.503Z,17.70
2018-11-22T13:12:51.724Z,21.43
2018-11-22T13:15:21.500Z,17.97
2018-11-22T13:17:50.681Z,17.10
2018-11-22T13:20:21.084Z,16.07
2018-11-22T13:22:49.875Z,17.50
2018-11-22T13:25:21.306Z,17.40
2018-11-22T13:27:50.245Z,16.27
2018-11-22T13:30:21.752Z,16.53
2018-11-22T13:32:51.107Z,17.93
2018-11-22T13:35:20.915Z,17.30
2018-11-22T13:37:51.098Z,16.57
2018-11-22T13:40:20.139Z,17.77
2018-11-22T13:42:50.047Z,16.83
2018-11-22T13:45:21.497Z,17.23
2018-11-22T13:47:51.528Z,17.00
2018-11-22T13:50:23.348Z,16.83
2018-11-22T13:52:54.194Z,17.20
2018-11-22T13:55:23.474Z,16.20
2018-11-22T13:57:52.361Z,16.60
2018-11-22T14:00:22.953Z,17.53
2018-11-22T14:02:54.025Z,17.07
2018-11-22T14:05:22.967Z,18.40
2018-11-22T14:07:51.795Z,17.10
2018-11-22T14:10:21.218Z,17.63
2018-11-22T14:12:50.100Z,17.13
2018-11-22T14:15:21.133Z,18.00
2018-11-22T14:17:51.035Z,17.87
2018-11-22T14:20:22.176Z,22.00
2018-11-22T14:22:50.784Z,17.47
2018-11-22T14:25:19.452Z,18.03
2018-11-22T14:27:49.166Z,20.27
2018-11-22T14:30:20.336Z,19.90
2018-11-22T14:32:49.726Z,19.93
2018-11-22T14:35:19.338Z,19.10
2018-11-22T14:37:48.002Z,20.93
2018-11-22T14:40:21.831Z,21.23
2018-11-22T14:42:50.988Z,17.60
2018-11-22T14:45:19.649Z,19.83
2018-11-22T14:47:49.451Z,21.33
2018-11-22T14:50:36.870Z,19.33
2018-11-22T14:53:09.401Z,18.70
2018-11-22T14:55:38.624Z,17.83
2018-11-22T14:58:07.963Z,19.20
2018-11-22T15:00:36.745Z,19.33
2018-11-22T15:03:06.237Z,19.27
2018-11-22T15:05:35.142Z,18.70
2018-11-22T15:08:03.676Z,17.40
2018-11-22T15:10:32.416Z,17.67
2018-11-22T15:13:01.205Z,17.40
2018-11-22T15:15:30.442Z,17.30
2018-11-22T15:17:59.144Z,19.90
2018-11-22T15:20:28.146Z,19.70
2018-11-22T15:22:56.851Z,18.27
2018-11-22T15:25:27.090Z,17.90
2018-11-22T15:27:55.910Z,18.53
2018-11-22T15:30:26.256Z,18.53
2018-11-22T15:32:55.570Z,17.23
2018-11-22T15:35:25.808Z,18.10
2018-11-22T15:37:55.150Z,17.80
2018-11-22T15:40:25.272Z,17.70
2018-11-22T15:42:55.533Z,17.90
2018-11-22T15:45:25.874Z,18.10
2018-11-22T15:47:54.678Z,19.40
2018-11-22T15:50:24.866Z,17.90
2018-11-22T15:52:53.653Z,18.63
2018-11-22T15:55:22.812Z,20.10
2018-11-22T15:57:52.975Z,20.17
2018-11-22T16:00:24.844Z,19.30
2018-11-22T16:02:54.130Z,20.83
2018-11-22T16:05:23.543Z,20.07
2018-11-22T16:07:52.415Z,21.60
2018-11-22T16:10:26.780Z,22.13
2018-11-22T16:12:54.060Z,19.63
2018-11-22T16:15:28.928Z,21.43
2018-11-22T16:17:58.028Z,21.27
2018-11-22T16:20:26.640Z,21.07
2018-11-22T16:22:55.480Z,21.00
2018-11-22T16:25:24.259Z,20.53
2018-11-22T16:27:53.464Z,22.53
2018-11-22T16:30:23.980Z,22.20
2018-11-22T16:32:53.300Z,23.53
2018-11-22T16:35:22.862Z,24.40
2018-11-22T16:37:51.581Z,22.23
2018-11-22T16:40:23.676Z,24.80
2018-11-22T16:42:53.398Z,22.03
2018-11-22T16:45:28.288Z,20.90
2018-11-22T16:47:58.224Z,22.10
2018-11-22T16:50:28.233Z,24.97
2018-11-22T16:52:57.140Z,23.43
2018-11-22T16:55:26.575Z,22.67
2018-11-22T16:57:56.374Z,22.30
2018-11-22T17:00:27.235Z,20.73
2018-11-22T17:02:57.366Z,24.37
2018-11-22T17:05:26.388Z,21.10
2018-11-22T17:07:55.216Z,23.00
2018-11-22T17:10:25.396Z,22.20
2018-11-22T17:12:55.577Z,21.73
2018-11-22T17:15:26.039Z,20.20
2018-11-22T17:17:55.527Z,20.37
2018-11-22T17:20:24.793Z,20.33
2018-11-22T17:22:54.138Z,19.70
2018-11-22T17:25:24.588Z,20.73
2018-11-22T17:27:55.405Z,23.97
2018-11-22T17:30:26.023Z,22.00
2018-11-22T17:32:54.765Z,20.03
2018-11-22T17:35:25.116Z,21.63
2018-11-22T17:37:55.125Z,20.30
2018-11-22T17:40:26.060Z,23.17
2018-11-22T17:42:54.993Z,21.33
2018-11-22T17:45:31.765Z,21.67
2018-11-22T17:48:01.118Z,20.47
2018-11-22T17:50:32.609Z,21.97
2018-11-22T17:53:01.886Z,19.80
2018-11-22T17:55:31.624Z,20.13
2018-11-22T17:58:00.545Z,21.83
2018-11-22T18:00:31.116Z,22.07
2018-11-22T18:03:01.005Z,18.87
2018-11-22T18:05:29.774Z,19.00
2018-11-22T18:07:58.675Z,20.93
2018-11-22T18:10:29.141Z,19.80
2018-11-22T18:12:58.598Z,21.17
2018-11-22T18:15:28.159Z,20.60
2018-11-22T18:17:57.578Z,20.80
2018-11-22T18:20:28.817Z,18.57
2018-11-22T18:22:58.747Z,19.47
2018-11-22T18:25:29.297Z,20.77
2018-11-22T18:27:58.284Z,21.33
2018-11-22T18:30:34.113Z,23.17
2018-11-22T18:33:04.473Z,26.43
2018-11-22T18:35:33.289Z,20.77
2018-11-22T18:38:02.260Z,23.50
2018-11-22T18:40:32.576Z,23.27
2018-11-22T18:43:02.383Z,22.90
2018-11-22T18:45:32.843Z,23.23
2018-11-22T18:48:02.903Z,25.87
2018-11-22T18:50:33.009Z,22.60
2018-11-22T18:53:01.921Z,22.33
2018-11-22T18:55:31.051Z,25.63
2018-11-22T18:58:00.401Z,23.40
2018-11-22T19:00:30.732Z,24.10
2018-11-22T19:03:01.121Z,19.37
2018-11-22T19:05:30.186Z,22.60
2018-11-22T19:07:59.729Z,22.83
2018-11-22T19:10:30.413Z,21.67
2018-11-22T19:13:00.925Z,22.53
2018-11-22T19:15:31.143Z,24.60
2018-11-22T19:18:00.375Z,22.50
2018-11-22T19:20:31.771Z,23.40
2018-11-22T19:23:01.706Z,20.40
2018-11-22T19:25:30.748Z,22.10
2018-11-22T19:28:00.552Z,21.40
2018-11-22T19:30:37.082Z,20.40
2018-11-22T19:33:01.566Z,20.93
2018-11-22T19:35:31.765Z,21.77
2018-11-22T19:38:00.582Z,20.77
2018-11-22T19:40:32.714Z,21.30
2018-11-22T19:43:02.801Z,21.33
2018-11-22T19:45:33.370Z,22.50
2018-11-22T19:48:02.495Z,18.80
2018-11-22T19:50:32.131Z,23.03
2018-11-22T19:53:02.475Z,21.10
2018-11-22T19:55:32.388Z,21.57
2018-11-22T19:58:02.895Z,19.83
2018-11-22T20:00:32.299Z,22.40
2018-11-22T20:03:02.338Z,20.97
2018-11-22T20:05:32.551Z,21.27
2018-11-22T20:08:02.821Z,21.10
2018-11-22T20:10:33.004Z,21.63
2018-11-22T20:13:02.261Z,21.27
2018-11-22T20:15:31.573Z,19.77
2018-11-22T20:18:01.478Z,23.40
2018-11-22T20:20:30.543Z,21.30
2018-11-22T20:22:59.759Z,21.30
2018-11-22T20:25:28.946Z,18.80
2018-11-22T20:27:58.025Z,20.23
2018-11-22T20:30:32.289Z,20.97
2018-11-22T20:33:01.303Z,19.60
2018-11-22T20:35:31.049Z,20.27
2018-11-22T20:37:59.831Z,20.13
2018-11-22T20:40:29.417Z,21.10
2018-11-22T20:42:58.966Z,21.43
2018-11-22T20:45:28.681Z,22.37
2018-11-22T20:48:05.114Z,20.63
2018-11-22T20:50:34.365Z,18.77
2018-11-22T20:53:03.109Z,20.27
2018-11-22T20:55:33.571Z,18.90
2018-11-22T20:58:04.219Z,21.87
2018-11-22T21:00:34.558Z,20.20
2018-11-22T21:03:04.023Z,20.90
2018-11-22T21:05:32.994Z,19.53
2018-11-22T21:08:01.957Z,19.07
2018-11-22T21:10:32.320Z,20.60
2018-11-22T21:13:01.627Z,19.20
2018-11-22T21:15:31.799Z,20.77
2018-11-22T21:18:02.205Z,19.40
2018-11-22T21:20:32.608Z,18.87
2018-11-22T21:23:01.696Z,19.00
2018-11-22T21:25:30.938Z,18.90
2018-11-22T21:27:59.925Z,19.13
2018-11-22T21:30:35.945Z,19.90
2018-11-22T21:33:05.597Z,17.80
2018-11-22T21:35:34.779Z,18.07
2018-11-22T21:38:04.750Z,20.20
2018-11-22T21:40:34.019Z,19.93
2018-11-22T21:43:03.011Z,19.67
2018-11-22T21:45:32.936Z,20.10
2018-11-22T21:48:02.149Z,20.77
2018-11-22T21:50:31.080Z,19.23
2018-11-22T21:53:00.134Z,17.97
2018-11-22T21:55:29.854Z,17.53
2018-11-22T21:58:00.275Z,19.20
2018-11-22T22:00:34.546Z,20.20
2018-11-22T22:03:04.976Z,19.60
2018-11-22T22:05:33.794Z,18.80
2018-11-22T22:08:03.374Z,20.47
2018-11-22T22:10:32.044Z,18.20
2018-11-22T22:13:01.301Z,18.30
2018-11-22T22:15:31.377Z,17.77
2018-11-22T22:18:00.648Z,17.60
2018-11-22T22:20:31.493Z,17.93
2018-11-22T22:23:00.243Z,16.90
2018-11-22T22:25:29.420Z,17.30
2018-11-22T22:27:58.549Z,17.00
2018-11-22T22:30:28.735Z,17.50
2018-11-22T22:32:59.212Z,15.63
2018-11-22T22:35:27.896Z,19.60
2018-11-22T22:37:56.459Z,17.20
2018-11-22T22:40:26.595Z,16.40
2018-11-22T22:42:56.251Z,18.53
2018-11-22T22:45:26.276Z,18.40
2018-11-22T22:47:54.995Z,15.00
2018-11-22T22:50:25.922Z,18.20
2018-11-22T22:52:55.912Z,18.03
2018-11-22T22:55:24.930Z,18.97
2018-11-22T22:57:53.632Z,18.70
2018-11-22T23:00:28.541Z,17.23
2018-11-22T23:02:58.747Z,19.00
2018-11-22T23:05:28.030Z,16.27
2018-11-22T23:07:56.640Z,20.67
2018-11-22T23:10:26.036Z,17.43
2018-11-22T23:12:55.518Z,17.77
2018-11-22T23:15:25.548Z,16.60
2018-11-22T23:17:54.279Z,16.97
2018-11-22T23:20:24.347Z,18.90
2018-11-22T23:22:53.242Z,17.60
2018-11-22T23:25:23.028Z,16.60
2018-11-22T23:27:51.697Z,16.13
2018-11-22T23:30:25.413Z,16.40
2018-11-22T23:32:56.539Z,17.27
2018-11-22T23:35:25.069Z,17.83
2018-11-22T23:37:54.188Z,15.40
2018-11-22T23:40:27.130Z,17.87
2018-11-22T23:42:55.830Z,17.50
2018-11-22T23:45:25.897Z,17.47
2018-11-22T23:47:54.469Z,16.90
2018-11-22T23:50:25.548Z,16.90
2018-11-22T23:52:55.343Z,17.10
2018-11-22T23:55:24.243Z,17.60
2018-11-22T23:57:53.470Z,17.23
